createdAt,value
2023-01-04T00:02:02.726Z,6.30
2023-01-04T00:04:30.741Z,6.20
2023-01-04T00:06:58.770Z,6.10
2023-01-04T00:09:26.779Z,6.10
2023-01-04T00:11:54.804Z,6.00
2023-01-04T00:14:22.776Z,6.40
2023-01-04T00:16:52.158Z,6.30
2023-01-04T00:19:20.199Z,6.20
2023-01-04T00:21:48.202Z,6.10
2023-01-04T00:24:16.252Z,6.20
2023-01-04T00:26:44.274Z,6.30
2023-01-04T00:29:14.564Z,6.20
2023-01-04T00:31:44.526Z,6.20
2023-01-04T00:34:17.214Z,6.20
2023-01-04T00:36:46.240Z,6.20
2023-01-04T00:39:16.809Z,6.30
2023-01-04T00:42:02.753Z,6.30
2023-01-04T00:44:31.170Z,6.30
2023-01-04T00:47:00.285Z,6.30
2023-01-04T00:49:30.635Z,6.40
2023-01-04T00:51:59.442Z,6.40
2023-01-04T00:54:27.532Z,6.30
2023-01-04T00:56:55.550Z,6.40
2023-01-04T00:59:23.905Z,6.50
2023-01-04T01:01:52.617Z,6.70
2023-01-04T01:04:23.508Z,6.70
2023-01-04T01:06:56.699Z,6.60
2023-01-04T01:09:24.801Z,6.80
2023-01-04T01:11:54.506Z,6.80
2023-01-04T01:14:25.930Z,6.90
2023-01-04T01:16:57.851Z,6.70
2023-01-04T01:19:28.030Z,6.70
2023-01-04T01:21:59.008Z,6.60
2023-01-04T01:24:28.105Z,6.70
2023-01-04T01:26:56.211Z,6.60
2023-01-04T01:29:24.635Z,6.80
2023-01-04T01:31:52.809Z,6.80
2023-01-04T01:34:20.983Z,6.80
2023-01-04T01:36:49.118Z,6.80
2023-01-04T01:39:18.475Z,6.90
2023-01-04T01:41:46.527Z,7.00
2023-01-04T01:44:58.834Z,7.10
2023-01-04T01:47:32.402Z,6.90
2023-01-04T01:50:01.308Z,6.70
2023-01-04T01:52:37.175Z,6.60
2023-01-04T01:55:10.825Z,6.70
2023-01-04T01:57:40.058Z,6.90
2023-01-04T02:00:13.809Z,6.90
2023-01-04T02:02:50.465Z,7.00
2023-01-04T02:05:20.745Z,6.90
2023-01-04T02:07:51.182Z,7.00
2023-01-04T02:10:20.878Z,7.00
2023-01-04T02:12:51.111Z,7.00
2023-01-04T02:15:19.393Z,6.90
2023-01-04T02:17:56.903Z,7.00
2023-01-04T02:20:39.901Z,7.00
2023-01-04T02:23:55.315Z,7.10
2023-01-04T02:27:15.834Z,6.90
2023-01-04T02:30:22.648Z,7.00
2023-01-04T02:33:11.589Z,7.10
2023-01-04T02:35:52.383Z,7.10
2023-01-04T02:38:29.866Z,7.10
2023-01-04T02:41:06.534Z,7.20
2023-01-04T02:43:58.672Z,7.20
2023-01-04T02:46:32.329Z,7.30
2023-01-04T02:49:20.956Z,7.20
2023-01-04T02:51:49.153Z,7.20
2023-01-04T02:54:22.644Z,7.00
2023-01-04T02:57:11.630Z,7.10
2023-01-04T03:00:15.378Z,7.00
2023-01-04T03:03:35.824Z,6.90
2023-01-04T03:06:17.159Z,7.00
2023-01-04T03:08:57.603Z,7.00
2023-01-04T03:11:50.384Z,6.90
2023-01-04T03:14:31.785Z,6.90
2023-01-04T03:17:03.330Z,6.90
2023-01-04T03:19:53.880Z,6.90
2023-01-04T03:22:48.767Z,6.90
2023-01-04T03:25:38.090Z,7.00
2023-01-04T03:28:25.667Z,7.00
2023-01-04T03:31:22.380Z,6.90
2023-01-04T03:34:08.134Z,6.90
2023-01-04T03:36:59.795Z,6.90
2023-01-04T03:40:02.658Z,6.90
2023-01-04T03:42:58.619Z,7.00
2023-01-04T03:45:50.943Z,7.10
2023-01-04T03:48:33.317Z,7.30
2023-01-04T03:51:15.518Z,7.30
2023-01-04T03:53:55.199Z,7.30
2023-01-04T03:56:27.521Z,7.20
2023-01-04T03:58:55.969Z,7.30
2023-01-04T04:01:27.910Z,7.20
2023-01-04T04:04:14.051Z,7.20
2023-01-04T04:06:59.869Z,7.10
2023-01-04T04:09:27.885Z,7.10
2023-01-04T04:11:57.670Z,7.10
2023-01-04T04:14:26.326Z,7.10
2023-01-04T04:16:54.403Z,7.20
2023-01-04T04:19:22.653Z,7.20
2023-01-04T04:21:50.757Z,7.20
2023-01-04T04:24:21.838Z,7.10
2023-01-04T04:26:50.090Z,7.10
2023-01-04T04:29:19.456Z,7.00
2023-01-04T04:31:47.525Z,7.10
2023-01-04T04:34:15.772Z,7.10
2023-01-04T04:36:43.821Z,7.00
2023-01-04T04:39:13.255Z,6.90
2023-01-04T04:41:41.699Z,6.90
2023-01-04T04:44:12.282Z,7.00
2023-01-04T04:46:42.423Z,7.10
2023-01-04T04:49:11.282Z,7.00
2023-01-04T04:51:39.674Z,7.00
2023-01-04T04:54:11.256Z,7.10
2023-01-04T04:56:39.321Z,7.10
2023-01-04T04:59:08.213Z,7.10
2023-01-04T05:01:36.522Z,7.10
2023-01-04T05:04:06.399Z,7.10
2023-01-04T05:06:34.780Z,7.00
2023-01-04T05:09:02.842Z,6.90
2023-01-04T05:11:48.619Z,7.00
2023-01-04T05:14:16.669Z,7.10
2023-01-04T05:16:45.163Z,7.10
2023-01-04T05:19:14.618Z,7.00
2023-01-04T05:21:42.658Z,7.00
2023-01-04T05:24:13.652Z,6.90
2023-01-04T05:26:42.011Z,6.80
2023-01-04T05:29:30.253Z,6.90
2023-01-04T05:31:57.425Z,6.80
2023-01-04T05:34:28.698Z,7.10
2023-01-04T05:36:56.760Z,7.10
2023-01-04T05:39:24.799Z,7.10
2023-01-04T05:42:10.353Z,6.90
2023-01-04T05:44:38.391Z,6.90
2023-01-04T05:47:11.237Z,7.10
2023-01-04T05:49:44.124Z,7.20
2023-01-04T05:52:12.596Z,7.00
2023-01-04T05:54:40.728Z,7.10
2023-01-04T05:57:09.177Z,7.30
2023-01-04T05:59:41.903Z,7.50
2023-01-04T06:02:17.448Z,7.60
2023-01-04T06:04:51.503Z,7.50
2023-01-04T06:07:23.502Z,7.60
2023-01-04T06:09:51.736Z,7.70
2023-01-04T06:12:19.858Z,7.50
2023-01-04T06:14:47.891Z,7.80
2023-01-04T06:17:16.156Z,7.80
2023-01-04T06:19:44.134Z,7.80
2023-01-04T06:22:13.520Z,7.80
2023-01-04T06:24:41.574Z,7.80
2023-01-04T06:27:09.653Z,7.70
2023-01-04T06:29:37.685Z,7.70
2023-01-04T06:32:05.976Z,7.70
2023-01-04T06:34:34.015Z,7.90
2023-01-04T06:37:02.057Z,7.90
2023-01-04T06:39:31.392Z,7.70
2023-01-04T06:42:06.128Z,7.90
2023-01-04T06:44:35.029Z,8.00
2023-01-04T06:47:03.100Z,7.80
2023-01-04T06:49:31.215Z,7.90
2023-01-04T06:51:59.384Z,7.80
2023-01-04T06:54:27.484Z,8.00
2023-01-04T06:56:56.832Z,8.00
2023-01-04T06:59:24.872Z,8.00
2023-01-04T07:01:53.009Z,8.00
2023-01-04T07:04:21.182Z,8.00
2023-01-04T07:06:49.279Z,8.00
2023-01-04T07:09:17.473Z,8.00
2023-01-04T07:11:45.703Z,7.90
2023-01-04T07:14:15.120Z,7.90
2023-01-04T07:16:43.308Z,8.00
2023-01-04T07:19:11.363Z,8.00
2023-01-04T07:21:39.409Z,8.10
2023-01-04T07:24:07.437Z,8.20
2023-01-04T07:26:35.648Z,8.20
2023-01-04T07:29:15.719Z,8.20
2023-01-04T07:31:47.531Z,8.30
2023-01-04T07:34:17.104Z,8.20
2023-01-04T07:36:45.244Z,8.20
2023-01-04T07:39:13.429Z,8.10
2023-01-04T07:41:42.714Z,8.20
2023-01-04T07:44:12.474Z,8.40
2023-01-04T07:46:41.274Z,8.30
2023-01-04T07:49:18.170Z,8.20
2023-01-04T07:51:47.615Z,8.20
2023-01-04T07:54:17.937Z,8.30
2023-01-04T07:56:47.042Z,8.20
2023-01-04T07:59:18.424Z,8.30
2023-01-04T08:01:46.608Z,8.30
2023-01-04T08:04:17.041Z,8.20
2023-01-04T08:06:47.205Z,8.20
2023-01-04T08:09:15.534Z,7.90
2023-01-04T08:11:43.524Z,8.00
2023-01-04T08:14:12.443Z,8.10
2023-01-04T08:16:43.235Z,8.10
2023-01-04T08:19:17.669Z,8.20
2023-01-04T08:21:46.132Z,8.30
2023-01-04T08:24:16.399Z,8.30
2023-01-04T08:26:44.857Z,8.40
2023-01-04T08:29:14.054Z,8.30
2023-01-04T08:31:43.049Z,8.30
2023-01-04T08:34:11.752Z,8.40
2023-01-04T08:36:49.093Z,8.40
2023-01-04T08:39:17.419Z,8.50
2023-01-04T08:42:02.643Z,8.50
2023-01-04T08:44:36.097Z,8.30
2023-01-04T08:47:04.338Z,8.40
2023-01-04T08:49:32.487Z,8.40
2023-01-04T08:52:01.904Z,8.50
2023-01-04T08:54:29.924Z,8.50
2023-01-04T08:56:57.972Z,8.40
2023-01-04T08:59:25.973Z,8.50
2023-01-04T09:01:54.978Z,8.60
2023-01-04T09:04:25.433Z,8.70
2023-01-04T09:06:53.587Z,8.60
2023-01-04T09:09:22.917Z,8.60
2023-01-04T09:11:50.993Z,8.50
2023-01-04T09:14:19.006Z,8.60
2023-01-04T09:16:47.077Z,8.60
2023-01-04T09:19:21.644Z,8.50
2023-01-04T09:21:52.897Z,8.50
2023-01-04T09:24:22.496Z,8.60
2023-01-04T09:26:50.892Z,8.70
2023-01-04T09:29:19.085Z,8.60
2023-01-04T09:31:47.375Z,8.60
2023-01-04T09:34:17.491Z,8.70
2023-01-04T09:36:46.546Z,8.70
2023-01-04T09:39:23.914Z,8.70
2023-01-04T09:41:58.997Z,8.80
2023-01-04T09:47:36.915Z,9.00
2023-01-04T09:50:12.498Z,8.90
2023-01-04T09:52:50.877Z,8.90
2023-01-04T09:55:38.915Z,8.80
2023-01-04T09:58:23.479Z,9.00
2023-01-04T10:01:04.721Z,8.90
2023-01-04T10:03:35.619Z,9.00
2023-01-04T10:06:04.757Z,9.10
2023-01-04T10:08:33.293Z,9.20
2023-01-04T10:11:25.606Z,9.20
2023-01-04T10:14:11.676Z,9.10
2023-01-04T10:23:02.977Z,9.00
2023-01-04T10:25:40.555Z,9.00
2023-01-04T10:28:25.101Z,9.20
2023-01-04T10:31:41.016Z,9.20
2023-01-04T10:33:59.911Z,9.30
2023-01-04T10:36:32.560Z,9.40
2023-01-04T10:39:04.250Z,9.40
2023-01-04T10:41:39.809Z,9.40
2023-01-04T10:44:16.904Z,9.40
2023-01-04T10:46:54.352Z,9.50
2023-01-04T10:49:34.353Z,9.30
2023-01-04T10:52:07.667Z,9.40
2023-01-04T10:54:41.979Z,9.50
2023-01-04T10:57:18.152Z,9.60
2023-01-04T10:59:52.922Z,9.60
2023-01-04T11:02:28.461Z,9.50
2023-01-04T11:05:04.460Z,9.50
2023-01-04T11:07:40.480Z,9.40
2023-01-04T11:10:15.029Z,9.30
2023-01-04T11:12:43.226Z,9.30
2023-01-04T11:15:12.068Z,9.40
2023-01-04T11:17:43.981Z,9.40
2023-01-04T11:20:12.753Z,9.40
2023-01-04T11:22:46.849Z,9.40
2023-01-04T11:25:36.554Z,9.40
2023-01-04T11:28:16.757Z,9.40
2023-01-04T11:30:54.845Z,9.50
2023-01-04T11:33:25.719Z,9.50
2023-01-04T11:35:56.491Z,9.60
2023-01-04T11:38:28.704Z,9.60
2023-01-04T11:41:00.976Z,9.60
2023-01-04T11:43:31.054Z,9.80
2023-01-04T11:46:06.393Z,9.80
2023-01-04T11:48:41.317Z,9.80
2023-01-04T11:51:36.587Z,9.70
2023-01-04T11:54:08.354Z,9.70
2023-01-04T11:56:38.387Z,9.70
2023-01-04T11:59:25.176Z,9.80
2023-01-04T12:02:42.171Z,9.80
2023-01-04T12:05:28.202Z,10.00
2023-01-04T12:07:58.781Z,10.10
2023-01-04T12:10:29.148Z,10.10
2023-01-04T12:13:01.109Z,10.10
2023-01-04T12:15:39.685Z,10.00
2023-01-04T12:18:15.848Z,10.10
2023-01-04T12:20:46.143Z,10.00
2023-01-04T12:23:15.452Z,10.10
2023-01-04T12:25:49.509Z,10.10
2023-01-04T12:28:35.552Z,10.20
2023-01-04T12:31:33.569Z,10.10
2023-01-04T12:34:42.205Z,10.10
2023-01-04T12:37:49.311Z,10.10
2023-01-04T12:40:57.263Z,10.20
2023-01-04T12:43:27.837Z,9.90
2023-01-04T12:47:00.131Z,10.20
2023-01-04T12:49:53.350Z,10.20
2023-01-04T12:55:59.627Z,10.10
2023-01-04T12:59:23.740Z,10.10
2023-01-04T13:01:32.493Z,10.20
2023-01-04T13:04:24.476Z,10.30
2023-01-04T13:06:52.955Z,10.30
2023-01-04T13:09:25.440Z,10.00
2023-01-04T13:12:16.775Z,10.00
2023-01-04T13:14:49.334Z,10.20
2023-01-04T13:17:21.557Z,10.20
2023-01-04T13:19:50.507Z,10.20
2023-01-04T13:22:28.649Z,10.20
2023-01-04T13:25:00.365Z,10.20
2023-01-04T13:27:28.800Z,10.30
2023-01-04T13:29:56.978Z,10.30
2023-01-04T13:32:27.670Z,10.30
2023-01-04T13:35:00.437Z,10.40
2023-01-04T13:37:31.375Z,10.30
2023-01-04T13:40:22.686Z,10.30
2023-01-04T13:43:05.817Z,10.40
2023-01-04T13:46:14.882Z,10.20
2023-01-04T13:48:47.694Z,10.30
2023-01-04T13:51:30.698Z,10.20
2023-01-04T13:54:04.184Z,10.20
2023-01-04T13:56:35.954Z,10.10
2023-01-04T13:59:04.046Z,10.10
2023-01-04T14:01:34.610Z,10.10
2023-01-04T14:04:05.709Z,10.10
2023-01-04T14:06:39.373Z,10.10
2023-01-04T14:09:16.689Z,10.20
2023-01-04T14:12:09.905Z,10.30
2023-01-04T14:14:50.115Z,10.10
2023-01-04T14:17:31.630Z,10.00
2023-01-04T14:20:01.681Z,10.20
2023-01-04T14:22:52.469Z,10.20
2023-01-04T14:25:44.832Z,10.20
2023-01-04T14:28:28.566Z,10.20
2023-01-04T14:31:15.910Z,10.20
2023-01-04T14:33:46.739Z,10.10
2023-01-04T14:36:21.465Z,10.10
2023-01-04T14:39:10.002Z,10.10
2023-01-04T14:41:40.326Z,10.00
2023-01-04T14:44:16.070Z,10.10
2023-01-04T14:46:47.144Z,10.10
2023-01-04T14:49:19.835Z,10.00
2023-01-04T14:51:50.784Z,10.00
2023-01-04T14:54:25.132Z,9.90
2023-01-04T14:56:54.852Z,9.90
2023-01-04T14:59:24.913Z,10.00
2023-01-04T15:01:53.820Z,10.00
2023-01-04T15:04:22.315Z,10.10
2023-01-04T15:06:53.761Z,10.20
2023-01-04T15:09:22.386Z,10.10
2023-01-04T15:11:50.588Z,10.00
2023-01-04T15:14:18.819Z,10.10
2023-01-04T15:16:49.283Z,10.20
2023-01-04T15:19:18.253Z,10.20
2023-01-04T15:21:46.447Z,10.20
2023-01-04T15:24:18.566Z,10.00
2023-01-04T15:26:46.687Z,9.90
2023-01-04T15:29:14.676Z,10.00
2023-01-04T15:31:43.744Z,10.10
2023-01-04T15:34:15.538Z,10.10
2023-01-04T15:36:43.589Z,10.00
2023-01-04T15:39:14.426Z,9.90
2023-01-04T15:42:00.241Z,10.00
2023-01-04T15:44:28.617Z,10.10
2023-01-04T15:46:59.452Z,9.80
2023-01-04T15:49:30.942Z,9.90
2023-01-04T15:51:59.179Z,9.90
2023-01-04T15:54:27.489Z,9.90
2023-01-04T15:56:55.877Z,10.00
2023-01-04T15:59:24.116Z,10.00
2023-01-04T16:01:52.228Z,10.00
2023-01-04T16:04:21.386Z,10.00
2023-01-04T16:06:50.753Z,9.80
2023-01-04T16:09:18.941Z,10.00
2023-01-04T16:12:01.111Z,10.00
2023-01-04T16:14:29.527Z,10.00
2023-01-04T16:16:57.817Z,10.00
2023-01-04T16:19:25.909Z,10.00
2023-01-04T16:21:55.372Z,10.00
2023-01-04T16:25:00.174Z,10.10
2023-01-04T16:27:11.470Z,10.10
2023-01-04T16:29:39.511Z,10.20
2023-01-04T16:32:08.072Z,10.00
2023-01-04T16:34:36.399Z,10.20
2023-01-04T16:37:05.789Z,10.10
2023-01-04T16:40:05.194Z,10.10
2023-01-04T16:42:22.883Z,10.10
2023-01-04T16:44:50.961Z,10.10
2023-01-04T16:47:19.058Z,10.10
2023-01-04T16:49:51.850Z,9.90
2023-01-04T16:52:21.346Z,10.00
2023-01-04T16:54:50.412Z,10.00
2023-01-04T16:57:18.494Z,10.00
2023-01-04T16:59:46.515Z,9.90
2023-01-04T17:02:14.785Z,10.00
2023-01-04T17:04:43.200Z,10.00
2023-01-04T17:07:11.480Z,10.00
2023-01-04T17:09:41.214Z,9.90
2023-01-04T17:12:46.200Z,10.00
2023-01-04T17:17:46.313Z,10.00
2023-01-04T17:20:14.528Z,10.00
2023-01-04T17:22:42.662Z,10.00
2023-01-04T17:25:12.171Z,10.00
2023-01-04T17:27:40.763Z,10.10
2023-01-04T17:30:11.105Z,10.10
2023-01-04T17:32:40.385Z,10.10
2023-01-04T17:35:09.355Z,10.10
2023-01-04T17:37:37.556Z,10.20
2023-01-04T17:40:07.276Z,10.20
2023-01-04T17:42:36.914Z,10.10
2023-01-04T17:45:06.182Z,10.20
2023-01-04T17:47:34.427Z,10.20
2023-01-04T17:50:02.699Z,10.30
2023-01-04T17:52:31.657Z,10.20
2023-01-04T17:55:00.945Z,10.40
2023-01-04T17:57:31.187Z,10.30
2023-01-04T18:00:01.542Z,10.40
2023-01-04T18:02:29.824Z,10.60
2023-01-04T18:04:57.948Z,10.40
2023-01-04T18:07:26.242Z,10.40
2023-01-04T18:09:56.463Z,10.40
2023-01-04T18:12:24.683Z,10.40
2023-01-04T18:14:52.671Z,10.50
2023-01-04T18:17:23.334Z,10.60
2023-01-04T18:19:52.157Z,10.60
2023-01-04T18:22:20.350Z,10.70
2023-01-04T18:24:48.467Z,10.60
2023-01-04T18:27:25.955Z,10.50
2023-01-04T18:29:56.548Z,10.50
2023-01-04T18:32:27.621Z,10.50
2023-01-04T18:34:55.766Z,10.50
2023-01-04T18:37:24.031Z,10.50
2023-01-04T18:39:52.240Z,10.70
2023-01-04T18:42:20.438Z,10.70
2023-01-04T18:44:49.657Z,10.50
2023-01-04T18:47:19.821Z,10.40
2023-01-04T18:49:49.813Z,10.50
2023-01-04T18:52:18.937Z,10.40
2023-01-04T18:54:48.388Z,10.50
2023-01-04T18:57:16.751Z,10.40
2023-01-04T18:59:44.796Z,10.40
2023-01-04T19:02:18.467Z,10.50
2023-01-04T19:04:47.000Z,10.50
2023-01-04T19:07:16.481Z,10.50
2023-01-04T19:09:44.693Z,10.40
2023-01-04T19:12:12.940Z,10.50
2023-01-04T19:14:41.817Z,10.50
2023-01-04T19:17:10.519Z,10.60
2023-01-04T19:19:38.879Z,10.60
2023-01-04T19:22:07.870Z,10.70
2023-01-04T19:24:37.300Z,10.60
2023-01-04T19:27:05.535Z,10.80
2023-01-04T19:29:35.951Z,10.80
2023-01-04T19:32:05.002Z,11.00
2023-01-04T19:34:33.073Z,11.10
2023-01-04T19:37:01.089Z,10.90
2023-01-04T19:39:29.240Z,11.00
2023-01-04T19:41:58.656Z,10.90
2023-01-04T19:44:26.824Z,10.70
2023-01-04T19:46:55.073Z,10.90
2023-01-04T19:49:23.193Z,10.80
2023-01-04T19:51:51.692Z,10.90
2023-01-04T19:54:25.078Z,10.90
2023-01-04T19:56:54.824Z,10.90
2023-01-04T19:59:24.412Z,11.00
2023-01-04T20:01:52.739Z,11.00
2023-01-04T20:04:21.138Z,10.90
2023-01-04T20:06:49.426Z,10.80
2023-01-04T20:09:20.445Z,10.80
2023-01-04T20:11:50.353Z,10.70
2023-01-04T20:14:18.378Z,10.60
2023-01-04T20:16:48.102Z,10.80
2023-01-04T20:19:17.653Z,10.80
2023-01-04T20:21:45.899Z,10.80
2023-01-04T20:24:13.978Z,10.70
2023-01-04T20:26:42.557Z,10.70
2023-01-04T20:29:10.931Z,10.90
2023-01-04T20:31:43.747Z,11.00
2023-01-04T20:34:15.176Z,11.00
2023-01-04T20:36:44.594Z,11.10
2023-01-04T20:39:13.264Z,11.10
2023-01-04T20:42:02.408Z,11.20
2023-01-04T20:44:29.824Z,11.10
2023-01-04T20:46:58.425Z,11.20
2023-01-04T20:49:27.854Z,11.00
2023-01-04T20:51:56.089Z,10.90
2023-01-04T20:54:24.540Z,11.00
2023-01-04T20:56:52.783Z,11.00
2023-01-04T20:59:21.110Z,11.10
2023-01-04T21:01:49.429Z,11.10
2023-01-04T21:04:18.337Z,11.20
2023-01-04T21:06:47.730Z,11.20
2023-01-04T21:09:15.821Z,11.30
2023-01-04T21:11:44.649Z,11.30
2023-01-04T21:14:13.129Z,11.10
2023-01-04T21:16:41.859Z,11.00
2023-01-04T21:19:10.074Z,11.00
2023-01-04T21:21:38.147Z,11.10
2023-01-04T21:24:08.681Z,11.10
2023-01-04T21:26:36.765Z,11.00
2023-01-04T21:29:05.125Z,11.20
2023-01-04T21:31:33.526Z,11.20
2023-01-04T21:34:02.946Z,11.10
2023-01-04T21:36:33.769Z,11.10
2023-01-04T21:39:01.824Z,11.10
2023-01-04T21:41:31.702Z,11.20
2023-01-04T21:44:00.213Z,11.10
2023-01-04T21:46:29.481Z,11.10
2023-01-04T21:49:01.420Z,11.10
2023-01-04T21:51:29.788Z,10.90
2023-01-04T21:53:59.046Z,11.00
2023-01-04T21:56:27.232Z,10.90
2023-01-04T21:58:56.721Z,10.90
2023-01-04T22:01:32.490Z,11.00
2023-01-04T22:04:02.512Z,11.10
2023-01-04T22:06:33.257Z,11.20
2023-01-04T22:09:01.509Z,11.30
2023-01-04T22:11:29.827Z,11.30
2023-01-04T22:13:59.371Z,11.40
2023-01-04T22:16:29.352Z,11.50
2023-01-04T22:18:59.403Z,11.50
2023-01-04T22:21:27.697Z,11.60
2023-01-04T22:23:56.237Z,11.50
2023-01-04T22:26:25.713Z,11.50
2023-01-04T22:28:53.728Z,11.60
2023-01-04T22:31:23.272Z,11.60
2023-01-04T22:33:51.473Z,11.70
2023-01-04T22:36:23.232Z,11.60
2023-01-04T22:38:52.603Z,11.70
2023-01-04T22:41:22.427Z,11.50
2023-01-04T22:43:56.486Z,11.50
2023-01-04T22:46:27.374Z,11.30
2023-01-04T22:48:55.946Z,11.10
2023-01-04T22:51:27.321Z,11.20
2023-01-04T22:53:56.426Z,11.30
2023-01-04T22:56:25.542Z,11.30
2023-01-04T22:58:57.383Z,11.40
2023-01-04T23:01:29.644Z,11.30
2023-01-04T23:03:59.556Z,11.30
2023-01-04T23:06:29.613Z,11.40
2023-01-04T23:09:00.142Z,11.50
2023-01-04T23:11:30.733Z,11.50
2023-01-04T23:14:00.116Z,11.60
2023-01-04T23:16:32.762Z,11.50
2023-01-04T23:19:01.583Z,11.70
2023-01-04T23:21:30.129Z,11.70
2023-01-04T23:23:58.578Z,11.80
2023-01-04T23:26:28.784Z,11.80
2023-01-04T23:28:56.961Z,11.60
2023-01-04T23:31:27.367Z,11.50
2023-01-04T23:33:59.191Z,11.60
2023-01-04T23:36:31.231Z,11.60
2023-01-04T23:39:02.026Z,11.70
2023-01-04T23:41:43.967Z,11.80
2023-01-04T23:44:14.615Z,11.80
2023-01-04T23:46:43.154Z,11.70
2023-01-04T23:49:13.453Z,11.70
2023-01-04T23:51:42.621Z,11.80
2023-01-04T23:54:11.258Z,11.50
2023-01-04T23:56:40.383Z,11.60
2023-01-04T23:59:09.113Z,11.70
